Carcroft, United Kingdom
Current Conditions -  °F | °C
As of 8:20 PM on Tuesday 21 Oct 2014 (Local Time) from EGCN Reporting Station
Clear Clear  
Wind Chill: 42°   Ceiling: Unl
Heat Index: 48°   Visibility: 6mi
Dew Point: 36°   Wind: 17mph
Humidity: 62%   Direction: 280°W
Pressure: 29.94"   Gusts: NA
Location:  53.58°N, 1.18°W
Report Text: EGCN 211920Z 28015KT CAVOK 09/02 Q1014
Loading
Personal Weather Stations






























Interactive Weather Map
Tropical Storm Tracking
New forecast layout! Learn more

10-Day Weather Forecast

Advertisements
Track Severe Weather on mobile